Polaris — JD2797 — position and weather

sailwx.info

Track history (hours):
 
Tides and Currents Weather Stations Pressure Air Temp Water Temp Dewpoint Dewpoint Depression Visibility Wind Speed Wind Dir Waves Ship Positions

Polaris

Last reported at 2018-Feb-20 04:00 UTC. Time now 2018-Feb-20 04:15 UTC.
Position N 35°27' E 139°40'.

Length 30 m; draft 2.6 m.

Type: Pilot. MMSI: 431000764.

Date/timePositionNaut miles runAvg speedWind from/ knotsBaromVisibWave heightAir tempDewpointWater temp
2018-Feb-20 04:00N 35°27' E 139°40'0 0.0
2018-Feb-20 03:31N 35°27' E 139°40'0 0.0
2018-Feb-20 03:00N 35°27' E 139°40'0 0.0
2018-Feb-20 02:31N 35°27' E 139°40'0 0.0
2018-Feb-20 02:00N 35°27' E 139°40'0 0.0
2018-Feb-20 01:30N 35°27' E 139°40'0 0.0
2018-Feb-20 01:01N 35°27' E 139°40'0 0.0
2018-Feb-20 00:30N 35°27' E 139°40'0 0.0
2018-Feb-19 23:59N 35°27' E 139°40'0 0.0
2018-Feb-19 23:31N 35°27' E 139°40'0 0.0
2018-Feb-19 23:00N 35°27' E 139°40'2 3.7
2018-Feb-19 22:31N 35°27' E 139°42'611.6
2018-Feb-19 22:00N 35°21' E 139°43'611.8
2018-Feb-19 21:28N 35°15' E 139°47'510.4
2018-Feb-19 21:00N 35°11' E 139°47'1 2.4
2018-Feb-19 20:30N 35°12' E 139°46'613.0
2018-Feb-19 20:00N 35°18' E 139°44'713.0
2018-Feb-19 19:30N 35°24' E 139°42'3 6.2
2018-Feb-19 19:00N 35°27' E 139°40'0 0.0
2018-Feb-19 18:31N 35°27' E 139°40'0 0.0
2018-Feb-19 18:01N 35°27' E 139°40'  
2018-Feb-14 11:37N 35°27' E 139°40'1 4.9
2018-Feb-14 11:31N 35°27' E 139°40'612.8
2018-Feb-14 11:01N 35°21' E 139°42'714.4
2018-Feb-14 10:30N 35°14' E 139°46'2 3.9
2018-Feb-14 10:01N 35°16' E 139°46'612.4
2018-Feb-14 09:30N 35°22' E 139°42'4 8.1
2018-Feb-14 09:01N 35°25' E 139°46'1 1.1
2018-Feb-14 08:30N 35°24' E 139°45'3 7.0
2018-Feb-14 08:00N 35°27' E 139°42'2 3.3
2018-Feb-14 07:30N 35°27' E 139°40'0 0.0
2018-Feb-14 07:00N 35°27' E 139°40'0 0.0
2018-Feb-14 06:31N 35°27' E 139°40'0 0.0
2018-Feb-14 06:00N 35°27' E 139°40'0 0.0
2018-Feb-14 05:30N 35°27' E 139°40'0 0.0
2018-Feb-14 05:00N 35°27' E 139°40'0 0.0
2018-Feb-14 04:30N 35°27' E 139°40'0 0.0
2018-Feb-14 04:00N 35°27' E 139°40'0 0.0
2018-Feb-14 03:30N 35°27' E 139°40'0 0.0
2018-Feb-14 03:00N 35°27' E 139°40'0 0.0
2018-Feb-14 02:30N 35°27' E 139°40'0 0.0
2018-Feb-14 02:00N 35°27' E 139°40'0 0.0
2018-Feb-14 01:30N 35°27' E 139°40'0 0.0
2018-Feb-14 01:01N 35°27' E 139°40'0 0.0
2018-Feb-14 00:30N 35°27' E 139°40'0 0.0
2018-Feb-14 00:00N 35°27' E 139°40'0 0.0
2018-Feb-13 23:30N 35°27' E 139°40'0 0.0
2018-Feb-13 23:00N 35°27' E 139°40'0 0.0
2018-Feb-13 22:30N 35°27' E 139°40'1 2.3
2018-Feb-13 22:00N 35°27' E 139°41'510.6
2018-Feb-13 21:30N 35°24' E 139°46'611.6
2018-Feb-13 21:01N 35°18' E 139°45'611.7
2018-Feb-13 20:30N 35°13' E 139°47'2 3.1
2018-Feb-13 20:00N 35°11' E 139°47'612.7
2018-Feb-13 19:30N 35°17' E 139°44'713.2
2018-Feb-13 19:00N 35°24' E 139°42'4 7.2
2018-Feb-13 18:30N 35°27' E 139°40'0 0.0
2018-Feb-13 18:00N 35°27' E 139°40'0 0.0
2018-Feb-11 23:42N 35°27' E 139°40'1 6.0
2018-Feb-11 23:31N 35°27' E 139°41'713.9
2018-Feb-11 23:00N 35°20' E 139°42'714.3
2018-Feb-11 22:30N 35°13' E 139°46'3 6.5
2018-Feb-11 22:00N 35°17' E 139°45'713.4
2018-Feb-11 21:30N 35°23' E 139°42'3 6.6
2018-Feb-11 21:01N 35°25' E 139°45'3 6.3
2018-Feb-11 20:30N 35°26' E 139°42'2 3.9
2018-Feb-11 20:00N 35°27' E 139°40'0 0.0
2018-Feb-11 19:30N 35°27' E 139°40'0 0.0
2018-Feb-11 19:00N 35°27' E 139°40'0 0.0
2018-Feb-11 18:30N 35°27' E 139°40'0 0.0
2018-Feb-11 18:00N 35°27' E 139°40'0 0.0
2018-Feb-11 17:30N 35°27' E 139°40'0 0.0
2018-Feb-11 17:00N 35°27' E 139°40'0 0.0
2018-Feb-11 16:30N 35°27' E 139°40'0 0.0
2018-Feb-11 16:01N 35°27' E 139°40'0 0.0
2018-Feb-11 15:31N 35°27' E 139°40'0 0.0
2018-Feb-11 15:00N 35°27' E 139°40'0 0.0
2018-Feb-11 14:30N 35°27' E 139°40'0 0.0
2018-Feb-11 14:00N 35°27' E 139°40'0 0.0
2018-Feb-11 13:30N 35°27' E 139°40'0 0.0
2018-Feb-11 13:00N 35°27' E 139°40'0 0.0
2018-Feb-11 12:30N 35°27' E 139°40'0 0.0
2018-Feb-11 12:00N 35°27' E 139°40'0 0.0
2018-Feb-11 11:30N 35°27' E 139°40'0 0.0
2018-Feb-11 11:00N 35°27' E 139°40'0 0.0
2018-Feb-11 10:30N 35°27' E 139°40'0 0.0
2018-Feb-11 10:00N 35°27' E 139°40'0 0.0
2018-Feb-11 09:30N 35°27' E 139°40'0 0.0
2018-Feb-11 09:00N 35°27' E 139°40'0 0.0
2018-Feb-11 08:30N 35°27' E 139°40'4 8.0
2018-Feb-11 08:01N 35°23' E 139°41'714.6
2018-Feb-11 07:31N 35°16' E 139°45'2 3.8
2018-Feb-11 07:00N 35°15' E 139°46'611.8
2018-Feb-11 06:31N 35°20' E 139°43'4 7.8
2018-Feb-11 06:00N 35°23' E 139°41'1 1.2
2018-Feb-11 05:31N 35°24' E 139°40'3 7.0
2018-Feb-11 05:01N 35°27' E 139°41'1 1.8
2018-Feb-11 04:30N 35°27' E 139°40'0 0.0
2018-Feb-11 04:00N 35°27' E 139°40'0 0.0
2018-Feb-11 03:30N 35°27' E 139°40'0 0.0
2018-Feb-11 03:00N 35°27' E 139°40'0 0.0
2018-Feb-11 02:30N 35°27' E 139°40'0 0.0
2018-Feb-11 02:00N 35°27' E 139°40'0 0.0
2018-Feb-11 01:30N 35°27' E 139°40'0 0.0
2018-Feb-11 01:00N 35°27' E 139°40'0 0.0
2018-Feb-11 00:30N 35°27' E 139°40'0 0.0
2018-Feb-11 00:00N 35°27' E 139°40'0 0.0
2018-Feb-10 23:30N 35°27' E 139°40'0 0.0
2018-Feb-10 23:00N 35°27' E 139°40'0 0.0
2018-Feb-10 22:30N 35°27' E 139°40'0 0.0
2018-Feb-10 22:00N 35°27' E 139°40'1 2.2
2018-Feb-10 21:30N 35°27' E 139°41'511.0
2018-Feb-10 21:00N 35°23' E 139°46'611.9
2018-Feb-10 20:30N 35°17' E 139°45'610.9
2018-Feb-10 19:59N 35°12' E 139°47'1 1.5
2018-Feb-10 19:28N 35°11' E 139°47'612.6
2018-Feb-10 19:00N 35°16' E 139°45'713.7
2018-Feb-10 18:30N 35°23' E 139°42'4 8.5
2018-Feb-10 18:00N 35°27' E 139°40'0 0.1
2018-Feb-10 17:30N 35°27' E 139°40'0 0.0
2018-Feb-10 17:00N 35°27' E 139°40'0 0.0
2018-Feb-10 16:30N 35°27' E 139°40'0 0.0
2018-Feb-10 16:00N 35°27' E 139°40'0 0.0
2018-Feb-10 15:30N 35°27' E 139°40'0 0.0
2018-Feb-10 15:00N 35°27' E 139°40'0 0.0
2018-Feb-10 14:30N 35°27' E 139°40'0 0.0
2018-Feb-10 14:00N 35°27' E 139°40'0 0.0
2018-Feb-10 13:30N 35°27' E 139°40'0 0.0
2018-Feb-10 13:00N 35°27' E 139°40'0 0.0
2018-Feb-10 12:30N 35°27' E 139°40'0 0.0
2018-Feb-10 12:00N 35°27' E 139°40'0 0.0
2018-Feb-10 11:30N 35°27' E 139°40'0 0.0
2018-Feb-10 11:00N 35°27' E 139°40'1 1.1
2018-Feb-10 10:30N 35°27' E 139°40'611.8
2018-Feb-10 10:00N 35°21' E 139°42'611.0
2018-Feb-10 09:30N 35°17' E 139°46'510.8
2018-Feb-10 09:00N 35°11' E 139°47'1 1.2
2018-Feb-10 08:30N 35°12' E 139°46'4 8.7
2018-Feb-10 08:00N 35°16' E 139°45'713.7
2018-Feb-10 07:31N 35°22' E 139°41'5 9.8
2018-Feb-10 07:00N 35°27' E 139°40'0 0.4
2018-Feb-10 06:31N 35°27' E 139°40'0 0.0
2018-Feb-10 06:00N 35°27' E 139°40'0 0.0
2018-Feb-10 05:30N 35°27' E 139°40'  
Track history (hours):
 
Tides and Currents Weather Stations Pressure Air Temp Water Temp Dewpoint Dewpoint Depression Visibility Wind Speed Wind Dir Waves Ship Positions

Polaris

Last reported at 2018-Feb-20 04:00 UTC. Time now 2018-Feb-20 04:15 UTC.
Position N 35°27' E 139°40'.

Length 30 m; draft 2.6 m.

Type: Pilot. MMSI: 431000764.

Date/timePositionNaut miles runAvg speedWind from/ knotsBaromVisibWave heightAir tempDewpointWater temp
2018-Feb-20 04:00N 35°27' E 139°40'0 0.0
2018-Feb-20 03:31N 35°27' E 139°40'0 0.0
2018-Feb-20 03:00N 35°27' E 139°40'0 0.0
2018-Feb-20 02:31N 35°27' E 139°40'0 0.0
2018-Feb-20 02:00N 35°27' E 139°40'0 0.0
2018-Feb-20 01:30N 35°27' E 139°40'0 0.0
2018-Feb-20 01:01N 35°27' E 139°40'0 0.0
2018-Feb-20 00:30N 35°27' E 139°40'0 0.0
2018-Feb-19 23:59N 35°27' E 139°40'0 0.0
2018-Feb-19 23:31N 35°27' E 139°40'0 0.0
2018-Feb-19 23:00N 35°27' E 139°40'2 3.7
2018-Feb-19 22:31N 35°27' E 139°42'611.6
2018-Feb-19 22:00N 35°21' E 139°43'611.8
2018-Feb-19 21:28N 35°15' E 139°47'510.4
2018-Feb-19 21:00N 35°11' E 139°47'1 2.4
2018-Feb-19 20:30N 35°12' E 139°46'613.0
2018-Feb-19 20:00N 35°18' E 139°44'713.0
2018-Feb-19 19:30N 35°24' E 139°42'3 6.2
2018-Feb-19 19:00N 35°27' E 139°40'0 0.0
2018-Feb-19 18:31N 35°27' E 139°40'0 0.0
2018-Feb-19 18:01N 35°27' E 139°40'  
2018-Feb-14 11:37N 35°27' E 139°40'1 4.9
2018-Feb-14 11:31N 35°27' E 139°40'612.8
2018-Feb-14 11:01N 35°21' E 139°42'714.4
2018-Feb-14 10:30N 35°14' E 139°46'2 3.9
2018-Feb-14 10:01N 35°16' E 139°46'612.4
2018-Feb-14 09:30N 35°22' E 139°42'4 8.1
2018-Feb-14 09:01N 35°25' E 139°46'1 1.1
2018-Feb-14 08:30N 35°24' E 139°45'3 7.0
2018-Feb-14 08:00N 35°27' E 139°42'2 3.3
2018-Feb-14 07:30N 35°27' E 139°40'0 0.0
2018-Feb-14 07:00N 35°27' E 139°40'0 0.0
2018-Feb-14 06:31N 35°27' E 139°40'0 0.0
2018-Feb-14 06:00N 35°27' E 139°40'0 0.0
2018-Feb-14 05:30N 35°27' E 139°40'0 0.0
2018-Feb-14 05:00N 35°27' E 139°40'0 0.0
2018-Feb-14 04:30N 35°27' E 139°40'0 0.0
2018-Feb-14 04:00N 35°27' E 139°40'0 0.0
2018-Feb-14 03:30N 35°27' E 139°40'0 0.0
2018-Feb-14 03:00N 35°27' E 139°40'0 0.0
2018-Feb-14 02:30N 35°27' E 139°40'0 0.0
2018-Feb-14 02:00N 35°27' E 139°40'0 0.0
2018-Feb-14 01:30N 35°27' E 139°40'0 0.0
2018-Feb-14 01:01N 35°27' E 139°40'0 0.0
2018-Feb-14 00:30N 35°27' E 139°40'0 0.0
2018-Feb-14 00:00N 35°27' E 139°40'0 0.0
2018-Feb-13 23:30N 35°27' E 139°40'0 0.0
2018-Feb-13 23:00N 35°27' E 139°40'0 0.0
2018-Feb-13 22:30N 35°27' E 139°40'1 2.3
2018-Feb-13 22:00N 35°27' E 139°41'510.6
2018-Feb-13 21:30N 35°24' E 139°46'611.6
2018-Feb-13 21:01N 35°18' E 139°45'611.7
2018-Feb-13 20:30N 35°13' E 139°47'2 3.1
2018-Feb-13 20:00N 35°11' E 139°47'612.7
2018-Feb-13 19:30N 35°17' E 139°44'713.2
2018-Feb-13 19:00N 35°24' E 139°42'4 7.2
2018-Feb-13 18:30N 35°27' E 139°40'0 0.0
2018-Feb-13 18:00N 35°27' E 139°40'0 0.0
2018-Feb-11 23:42N 35°27' E 139°40'1 6.0
2018-Feb-11 23:31N 35°27' E 139°41'713.9
2018-Feb-11 23:00N 35°20' E 139°42'714.3
2018-Feb-11 22:30N 35°13' E 139°46'3 6.5
2018-Feb-11 22:00N 35°17' E 139°45'713.4
2018-Feb-11 21:30N 35°23' E 139°42'3 6.6
2018-Feb-11 21:01N 35°25' E 139°45'3 6.3
2018-Feb-11 20:30N 35°26' E 139°42'2 3.9
2018-Feb-11 20:00N 35°27' E 139°40'0 0.0
2018-Feb-11 19:30N 35°27' E 139°40'0 0.0
2018-Feb-11 19:00N 35°27' E 139°40'0 0.0
2018-Feb-11 18:30N 35°27' E 139°40'0 0.0
2018-Feb-11 18:00N 35°27' E 139°40'0 0.0
2018-Feb-11 17:30N 35°27' E 139°40'0 0.0
2018-Feb-11 17:00N 35°27' E 139°40'0 0.0
2018-Feb-11 16:30N 35°27' E 139°40'0 0.0
2018-Feb-11 16:01N 35°27' E 139°40'0 0.0
2018-Feb-11 15:31N 35°27' E 139°40'0 0.0
2018-Feb-11 15:00N 35°27' E 139°40'0 0.0
2018-Feb-11 14:30N 35°27' E 139°40'0 0.0
2018-Feb-11 14:00N 35°27' E 139°40'0 0.0
2018-Feb-11 13:30N 35°27' E 139°40'0 0.0
2018-Feb-11 13:00N 35°27' E 139°40'0 0.0
2018-Feb-11 12:30N 35°27' E 139°40'0 0.0
2018-Feb-11 12:00N 35°27' E 139°40'0 0.0
2018-Feb-11 11:30N 35°27' E 139°40'0 0.0
2018-Feb-11 11:00N 35°27' E 139°40'0 0.0
2018-Feb-11 10:30N 35°27' E 139°40'0 0.0
2018-Feb-11 10:00N 35°27' E 139°40'0 0.0
2018-Feb-11 09:30N 35°27' E 139°40'0 0.0
2018-Feb-11 09:00N 35°27' E 139°40'0 0.0
2018-Feb-11 08:30N 35°27' E 139°40'4 8.0
2018-Feb-11 08:01N 35°23' E 139°41'714.6
2018-Feb-11 07:31N 35°16' E 139°45'2 3.8
2018-Feb-11 07:00N 35°15' E 139°46'611.8
2018-Feb-11 06:31N 35°20' E 139°43'4 7.8
2018-Feb-11 06:00N 35°23' E 139°41'1 1.2
2018-Feb-11 05:31N 35°24' E 139°40'3 7.0
2018-Feb-11 05:01N 35°27' E 139°41'1 1.8
2018-Feb-11 04:30N 35°27' E 139°40'0 0.0
2018-Feb-11 04:00N 35°27' E 139°40'0 0.0
2018-Feb-11 03:30N 35°27' E 139°40'0 0.0
2018-Feb-11 03:00N 35°27' E 139°40'0 0.0
2018-Feb-11 02:30N 35°27' E 139°40'0 0.0
2018-Feb-11 02:00N 35°27' E 139°40'0 0.0
2018-Feb-11 01:30N 35°27' E 139°40'0 0.0
2018-Feb-11 01:00N 35°27' E 139°40'0 0.0
2018-Feb-11 00:30N 35°27' E 139°40'0 0.0
2018-Feb-11 00:00N 35°27' E 139°40'0 0.0
2018-Feb-10 23:30N 35°27' E 139°40'0 0.0
2018-Feb-10 23:00N 35°27' E 139°40'0 0.0
2018-Feb-10 22:30N 35°27' E 139°40'0 0.0
2018-Feb-10 22:00N 35°27' E 139°40'1 2.2
2018-Feb-10 21:30N 35°27' E 139°41'511.0
2018-Feb-10 21:00N 35°23' E 139°46'611.9
2018-Feb-10 20:30N 35°17' E 139°45'610.9
2018-Feb-10 19:59N 35°12' E 139°47'1 1.5
2018-Feb-10 19:28N 35°11' E 139°47'612.6
2018-Feb-10 19:00N 35°16' E 139°45'713.7
2018-Feb-10 18:30N 35°23' E 139°42'4 8.5
2018-Feb-10 18:00N 35°27' E 139°40'0 0.1
2018-Feb-10 17:30N 35°27' E 139°40'0 0.0
2018-Feb-10 17:00N 35°27' E 139°40'0 0.0
2018-Feb-10 16:30N 35°27' E 139°40'0 0.0
2018-Feb-10 16:00N 35°27' E 139°40'0 0.0
2018-Feb-10 15:30N 35°27' E 139°40'0 0.0
2018-Feb-10 15:00N 35°27' E 139°40'0 0.0
2018-Feb-10 14:30N 35°27' E 139°40'0 0.0
2018-Feb-10 14:00N 35°27' E 139°40'0 0.0
2018-Feb-10 13:30N 35°27' E 139°40'0 0.0
2018-Feb-10 13:00N 35°27' E 139°40'0 0.0
2018-Feb-10 12:30N 35°27' E 139°40'0 0.0
2018-Feb-10 12:00N 35°27' E 139°40'0 0.0
2018-Feb-10 11:30N 35°27' E 139°40'0 0.0
2018-Feb-10 11:00N 35°27' E 139°40'1 1.1
2018-Feb-10 10:30N 35°27' E 139°40'611.8
2018-Feb-10 10:00N 35°21' E 139°42'611.0
2018-Feb-10 09:30N 35°17' E 139°46'510.8
2018-Feb-10 09:00N 35°11' E 139°47'1 1.2
2018-Feb-10 08:30N 35°12' E 139°46'4 8.7
2018-Feb-10 08:00N 35°16' E 139°45'713.7
2018-Feb-10 07:31N 35°22' E 139°41'5 9.8
2018-Feb-10 07:00N 35°27' E 139°40'0 0.4
2018-Feb-10 06:31N 35°27' E 139°40'0 0.0
2018-Feb-10 06:00N 35°27' E 139°40'0 0.0
2018-Feb-10 05:30N 35°27' E 139°40'  

Dump ship's entire track history